Time;durP1;ratioP1;P1;durP2;ratioP2;P2;SDS_P1;SDS_P2;PMS_P1;PMS_P2;Temp;Humidity;BMP_temperature;BMP_pressure;BME280_temperature;BME280_humidity;BME280_pressure;Samples;Min_cycle;Max_cycle;Signal;HPM_P1;HPM_P2
2022/01/10 00:00:42;;;;;;;;;42.25;32.75;;;;;1.71;79.19;98425.22;5048085;28;9057;-80
2022/01/10 00:03:11;;;;;;;;;41.75;36.50;;;;;1.93;78.30;98434.16;4999362;28;8845;-80
2022/01/10 00:05:40;;;;;;;;;48.50;39.75;;;;;1.45;79.75;98434.19;5032689;28;8856;-79
2022/01/10 00:08:11;;;;;;;;;49.00;38.25;;;;;1.65;79.62;98434.56;5035762;28;8977;-81
2022/01/10 00:10:40;;;;;;;;;44.50;41.75;;;;;1.86;78.61;98437.47;5048843;28;9644;-80
2022/01/10 00:13:10;;;;;;;;;43.75;39.00;;;;;2.00;77.77;98437.69;5053094;28;8854;-81
2022/01/10 00:15:39;;;;;;;;;43.25;35.25;;;;;2.14;77.25;98451.63;5046229;28;8857;-83
2022/01/10 00:18:10;;;;;;;;;41.50;38.00;;;;;2.00;77.50;98442.81;5032588;28;8872;-81
2022/01/10 00:20:38;;;;;;;;;32.67;32.33;;;;;1.98;77.90;98441.09;5046157;28;8854;-80
2022/01/10 00:23:09;;;;;;;;;34.50;33.50;;;;;2.06;78.31;98453.22;5031118;28;8891;-80
2022/01/10 00:25:37;;;;;;;;;39.50;33.75;;;;;2.19;76.82;98456.81;5028181;28;8846;-83
2022/01/10 00:28:06;;;;;;;;;40.25;35.75;;;;;2.22;76.34;98459.47;5011764;28;8848;-80
2022/01/10 00:30:37;;;;;;;;;32.00;25.00;;;;;1.89;77.69;98462.34;4979798;28;9474;-80
2022/01/10 00:33:06;;;;;;;;;35.75;30.50;;;;;2.19;77.05;98461.97;5024576;28;8816;-80
2022/01/10 00:35:35;;;;;;;;;43.25;35.00;;;;;2.32;76.38;98465.59;5005046;28;9722;-81
2022/01/10 00:38:04;;;;;;;;;47.75;43.00;;;;;2.51;75.51;98469.31;5021714;28;8867;-82
2022/01/10 00:40:34;;;;;;;;;46.00;38.75;;;;;2.54;75.34;98466.78;5024035;28;8874;-80
2022/01/10 00:43:03;;;;;;;;;35.00;31.25;;;;;2.39;76.04;98464.84;4992706;28;8869;-82
2022/01/10 00:45:33;;;;;;;;;47.75;42.00;;;;;2.46;75.51;98460.69;4977434;28;8872;-83
2022/01/10 00:48:03;;;;;;;;;43.50;35.50;;;;;2.41;76.09;98465.72;5022422;28;8962;-82
2022/01/10 00:50:33;;;;;;;;;38.00;36.75;;;;;2.53;75.55;98472.75;4991365;28;9200;-81
2022/01/10 00:53:02;;;;;;;;;49.00;43.25;;;;;2.68;75.13;98459.25;5003001;28;8883;-82
2022/01/10 00:55:31;;;;;;;;;48.00;42.75;;;;;2.49;75.46;98458.13;4993732;28;9489;-79
2022/01/10 00:58:00;;;;;;;;;45.50;40.75;;;;;2.56;74.84;98457.38;5020685;28;8848;-80
2022/01/10 01:00:29;;;;;;;;;39.00;38.25;;;;;2.26;76.29;98463.81;5025461;28;8891;-79
2022/01/10 01:02:59;;;;;;;;;44.00;40.00;;;;;2.27;76.47;98449.22;5020296;28;8903;-81
2022/01/10 01:05:31;;;;;;;;;46.00;39.50;;;;;2.28;76.82;98456.97;5085408;28;8926;-80
2022/01/10 01:08:05;;;;;;;;;42.25;37.50;;;;;2.34;76.27;98453.63;5088214;28;8859;-79
2022/01/10 01:13:28;;;;;;;;;40.00;32.75;;;;;2.00;77.73;98470.25;5048877;28;8838;-79
2022/01/10 01:16:10;;;;;;;;;39.25;32.25;;;;;2.16;76.85;98458.50;5048269;28;8904;-80
2022/01/10 01:24:19;;;;;;;;;44.50;38.00;;;;;2.14;76.80;98472.19;4992600;28;8980;-81
2022/01/10 01:26:51;;;;;;;;;46.25;39.50;;;;;2.24;76.81;98469.78;4969383;28;8992;-82
2022/01/10 01:29:22;;;;;;;;;41.50;31.75;;;;;2.23;76.59;98463.78;4938349;28;8933;-81
2022/01/10 01:31:52;;;;;;;;;30.00;25.25;;;;;2.33;75.96;98468.19;4952466;28;9691;-82
2022/01/10 01:34:23;;;;;;;;;40.50;32.75;;;;;2.46;74.96;98471.81;4928162;28;8870;-82
2022/01/10 01:36:56;;;;;;;;;35.00;32.00;;;;;2.51;75.33;98466.72;4967756;28;8882;-83
2022/01/10 01:39:29;;;;;;;;;50.00;37.75;;;;;2.44;75.33;98464.91;4954372;28;8875;-82
2022/01/10 01:42:06;;;;;;;;;42.00;35.50;;;;;2.11;76.15;98461.00;4952808;28;8960;-80
2022/01/10 01:44:36;;;;;;;;;42.75;34.75;;;;;1.86;77.38;98465.75;4932649;28;8910;-79
2022/01/10 01:47:06;;;;;;;;;34.50;31.75;;;;;2.00;77.06;98463.38;4984578;28;8948;-78
2022/01/10 01:49:35;;;;;;;;;37.75;34.75;;;;;1.48;78.90;98472.81;4912557;28;8985;-82
2022/01/10 01:52:06;;;;;;;;;36.25;31.75;;;;;1.40;79.85;98459.81;4970974;28;8971;-80
2022/01/10 01:54:35;;;;;;;;;40.50;35.25;;;;;1.13;81.60;98463.56;4948094;28;9648;-81
2022/01/10 01:57:06;;;;;;;;;29.00;24.75;;;;;0.95;81.21;98476.91;4944424;28;8941;-79
2022/01/10 01:59:36;;;;;;;;;32.00;28.25;;;;;0.73;84.02;98467.03;5087611;28;8862;-80
2022/01/10 02:02:06;;;;;;;;;38.25;27.25;;;;;1.08;82.37;98474.63;5069779;28;8847;-79
2022/01/10 02:04:35;;;;;;;;;24.75;18.00;;;;;1.24;81.25;98468.91;5035335;28;8835;-79
2022/01/10 02:07:07;;;;;;;;;28.50;25.00;;;;;1.41;80.32;98474.38;5066496;28;8847;-80
2022/01/10 02:09:38;;;;;;;;;22.25;19.75;;;;;1.63;79.00;98474.78;5062787;28;8877;-79
2022/01/10 02:12:07;;;;;;;;;24.00;21.00;;;;;1.55;79.33;98474.63;5050992;28;8902;-82
2022/01/10 02:14:38;;;;;;;;;24.50;21.75;;;;;1.62;79.41;98476.47;5067743;28;8879;-82
2022/01/10 02:17:12;;;;;;;;;22.50;21.25;;;;;1.70;78.73;98481.72;5066372;28;8864;-80
2022/01/10 02:19:56;;;;;;;;;26.50;22.50;;;;;1.72;78.52;98480.06;5011888;28;8868;-81
2022/01/10 02:22:27;;;;;;;;;24.00;24.00;;;;;1.35;80.13;98477.69;5007694;28;8840;-80
2022/01/10 02:25:16;;;;;;;;;21.50;19.75;;;;;1.35;80.59;98471.69;5011308;28;8915;-81
2022/01/10 02:27:47;;;;;;;;;21.75;19.25;;;;;1.61;79.26;98468.72;5027603;28;8848;-83
2022/01/10 02:30:16;;;;;;;;;16.00;14.75;;;;;1.60;79.58;98465.28;5044062;28;9059;-80
2022/01/10 02:32:46;;;;;;;;;33.75;30.50;;;;;1.42;80.32;98463.28;5011079;28;8852;-80
2022/01/10 02:35:26;;;;;;;;;30.25;26.75;;;;;1.24;81.58;98457.78;5027725;28;8864;-79
2022/01/10 02:37:55;;;;;;;;;25.00;24.00;;;;;1.26;81.35;98472.38;5027211;28;8915;-81
2022/01/10 02:40:29;;;;;;;;;27.50;23.50;;;;;1.28;81.57;98468.13;4975510;28;8902;-79
2022/01/10 02:42:59;;;;;;;;;27.00;25.25;;;;;1.28;81.75;98474.97;5030897;28;9738;-82
2022/01/10 02:45:28;;;;;;;;;22.50;19.50;;;;;1.18;81.89;98484.22;5050806;28;8868;-78
2022/01/10 02:47:57;;;;;;;;;28.00;21.00;;;;;1.39;81.54;98481.19;5001805;28;8856;-80
2022/01/10 02:50:28;;;;;;;;;26.25;23.00;;;;;1.24;81.31;98491.16;5058328;28;9006;-82
2022/01/10 02:52:57;;;;;;;;;20.50;18.25;;;;;0.56;85.04;98492.34;5086135;28;10110;-84
2022/01/10 02:55:27;;;;;;;;;20.50;16.50;;;;;0.74;84.71;98489.31;5088521;28;8861;-79
2022/01/10 02:57:56;;;;;;;;;22.50;22.50;;;;;0.67;84.75;98505.41;5070664;28;9019;-80
2022/01/10 03:00:27;;;;;;;;;23.00;21.00;;;;;0.83;84.54;98502.31;5059183;28;9697;-79
2022/01/10 03:02:57;;;;;;;;;21.00;20.75;;;;;0.90;83.97;98505.88;5061397;28;8887;-82
2022/01/10 03:05:30;;;;;;;;;21.50;20.75;;;;;0.93;83.94;98493.13;5066945;28;9578;-80
2022/01/10 03:07:59;;;;;;;;;18.25;16.00;;;;;0.95;82.91;98510.28;5050534;28;8865;-79
2022/01/10 03:10:28;;;;;;;;;26.00;21.25;;;;;1.13;82.83;98501.22;5050489;28;8876;-80
2022/01/10 03:12:58;;;;;;;;;24.75;22.25;;;;;1.15;81.90;98504.69;5050099;28;8875;-80
2022/01/10 03:15:28;;;;;;;;;21.00;17.75;;;;;1.03;82.74;98495.03;5053812;28;8951;-79
2022/01/10 03:17:57;;;;;;;;;16.00;12.25;;;;;1.13;83.13;98496.94;5033114;28;8864;-80
2022/01/10 03:20:27;;;;;;;;;22.00;19.50;;;;;1.11;82.79;98496.06;5016970;28;8925;-83
2022/01/10 03:22:57;;;;;;;;;20.50;16.25;;;;;1.21;82.13;98496.25;5049785;28;9605;-79
2022/01/10 03:25:26;;;;;;;;;25.50;21.00;;;;;1.25;82.42;98506.63;5033127;28;8882;-82
2022/01/10 03:27:59;;;;;;;;;30.75;23.50;;;;;0.87;82.76;98508.38;5049882;28;8879;-81
2022/01/10 03:30:28;;;;;;;;;24.50;20.50;;;;;0.94;83.61;98499.97;5037499;28;8844;-82
2022/01/10 03:33:01;;;;;;;;;17.25;14.75;;;;;1.02;83.96;98485.63;5019711;28;8845;-79
2022/01/10 03:35:35;;;;;;;;;16.50;16.00;;;;;1.16;83.03;98484.19;5044178;28;8940;-81
2022/01/10 03:38:09;;;;;;;;;26.75;21.50;;;;;1.10;83.03;98493.47;5008480;28;8835;-79
2022/01/10 03:40:38;;;;;;;;;19.25;18.50;;;;;1.02;83.70;98498.47;5012942;28;8924;-80
2022/01/10 03:43:11;;;;;;;;;12.00;9.75;;;;;1.05;83.10;98501.06;5000607;28;8948;-79
2022/01/10 03:45:41;;;;;;;;;23.20;18.20;;;;;1.06;82.85;98505.38;5013341;28;9189;-81
2022/01/10 03:48:10;;;;;;;;;27.00;23.00;;;;;1.18;81.91;98504.75;5012691;28;8990;-80
2022/01/10 03:50:39;;;;;;;;;19.75;18.25;;;;;1.26;80.96;98503.19;5029805;28;8859;-81
2022/01/10 03:53:10;;;;;;;;;33.25;20.50;;;;;1.05;81.83;98502.78;5000448;28;8852;-85
2022/01/10 03:55:39;;;;;;;;;24.25;23.00;;;;;0.97;81.97;98505.19;5013441;28;8886;-79
2022/01/10 03:58:10;;;;;;;;;25.75;17.00;;;;;0.88;81.29;98512.69;5012821;28;8944;-82
2022/01/10 04:00:38;;;;;;;;;16.00;15.25;;;;;0.99;81.27;98508.66;5013254;28;8973;-80
2022/01/10 04:03:07;;;;;;;;;23.00;17.00;;;;;1.01;80.20;98511.25;5027978;28;8844;-81
2022/01/10 04:05:47;;;;;;;;;22.25;19.25;;;;;1.26;79.69;98512.59;5013557;28;8944;-84
2022/01/10 04:08:19;;;;;;;;;27.50;21.25;;;;;1.41;78.84;98518.03;5015513;28;8851;-79
2022/01/10 04:10:48;;;;;;;;;27.75;24.50;;;;;1.38;78.35;98514.53;5070299;28;8877;-80
2022/01/10 04:13:17;;;;;;;;;13.25;13.00;;;;;1.27;78.75;98524.63;5070420;28;8964;-83
2022/01/10 04:15:46;;;;;;;;;13.50;13.50;;;;;1.25;78.19;98527.16;5087439;28;9644;-81
2022/01/10 04:18:16;;;;;;;;;20.50;16.25;;;;;1.21;77.90;98521.91;5087441;28;8849;-82
2022/01/10 04:20:45;;;;;;;;;16.00;15.60;;;;;1.12;78.19;98527.75;5069941;28;8838;-83
2022/01/10 04:23:17;;;;;;;;;24.75;23.00;;;;;1.05;78.31;98524.16;5070917;28;8906;-81
2022/01/10 04:25:47;;;;;;;;;21.75;20.00;;;;;0.95;78.56;98532.53;5069855;28;8857;-81
2022/01/10 04:28:18;;;;;;;;;17.75;14.50;;;;;0.77;78.64;98548.38;5069514;28;8857;-77
2022/01/10 04:30:47;;;;;;;;;20.75;16.75;;;;;0.43;81.18;98550.16;5067972;28;8899;-79
2022/01/10 04:33:19;;;;;;;;;20.75;15.25;;;;;0.55;81.20;98552.19;5034917;28;8850;-82
2022/01/10 04:35:50;;;;;;;;;24.25;19.50;;;;;0.68;80.77;98558.44;5066152;28;8842;-79
2022/01/10 04:38:19;;;;;;;;;22.25;19.75;;;;;0.84;79.94;98564.78;5067599;28;8842;-79
2022/01/10 04:40:50;;;;;;;;;22.75;19.00;;;;;0.94;79.49;98564.16;5054613;28;8992;-79
2022/01/10 04:43:19;;;;;;;;;21.75;21.25;;;;;1.13;78.71;98565.41;5068973;28;8864;-79
2022/01/10 04:45:49;;;;;;;;;25.50;21.50;;;;;1.24;78.02;98563.94;5069788;28;8996;-82
2022/01/10 04:48:18;;;;;;;;;31.00;27.00;;;;;1.44;77.34;98572.06;5055472;28;8870;-79
2022/01/10 04:53:38;;;;;;;;;16.50;15.75;;;;;0.22;80.06;98576.16;4995749;28;8858;-80
2022/01/10 04:56:08;;;;;;;;;13.50;13.00;;;;;-0.01;82.59;98579.00;4994717;28;8946;-79
2022/01/10 04:58:39;;;;;;;;;29.25;23.75;;;;;0.22;81.85;98588.97;4972671;28;8906;-78
2022/01/10 05:01:08;;;;;;;;;18.75;16.00;;;;;0.24;81.40;98587.31;4980266;28;8878;-79
2022/01/10 05:03:38;;;;;;;;;21.75;14.75;;;;;0.24;81.57;98587.31;4995637;28;9006;-80
2022/01/10 05:06:07;;;;;;;;;22.00;18.00;;;;;0.36;80.85;98592.75;4976019;28;8860;-82
2022/01/10 05:08:37;;;;;;;;;19.75;18.50;;;;;0.60;80.79;98590.75;5009106;28;8892;-80
2022/01/10 05:11:12;;;;;;;;;22.00;18.25;;;;;0.69;79.81;98589.25;4976483;28;8848;-80
2022/01/10 05:13:41;;;;;;;;;27.75;20.00;;;;;0.62;79.44;98589.09;4988969;28;8950;-79
2022/01/10 05:16:10;;;;;;;;;13.50;12.75;;;;;0.79;79.00;98587.75;4976551;28;8900;-83
2022/01/10 05:18:39;;;;;;;;;25.50;21.75;;;;;0.87;78.40;98580.22;4957207;28;8882;-80
2022/01/10 05:21:09;;;;;;;;;25.75;23.00;;;;;0.88;78.33;98585.41;4989267;28;9645;-79
2022/01/10 05:23:38;;;;;;;;;24.50;22.75;;;;;0.97;78.04;98595.88;4972679;28;8868;-81
2022/01/10 05:26:07;;;;;;;;;21.75;19.50;;;;;1.03;77.68;98596.88;4972598;28;8882;-80
2022/01/10 05:28:39;;;;;;;;;25.00;23.75;;;;;1.11;77.44;98601.31;4988290;28;8860;-80
2022/01/10 05:31:08;;;;;;;;;18.50;18.50;;;;;1.31;76.80;98601.75;5013050;28;8856;-80
2022/01/10 05:33:50;;;;;;;;;20.00;17.75;;;;;1.43;75.91;98606.28;5013889;28;8838;-80
2022/01/10 05:36:20;;;;;;;;;32.75;31.75;;;;;1.51;75.66;98606.41;5047595;28;8842;-81
2022/01/10 05:38:49;;;;;;;;;20.25;20.25;;;;;1.40;75.49;98608.78;5030490;28;8966;-83
2022/01/10 05:41:20;;;;;;;;;21.75;18.25;;;;;1.42;75.10;98612.25;4998009;28;8846;-80
2022/01/10 05:43:55;;;;;;;;;26.00;22.50;;;;;1.29;75.05;98613.69;5049087;28;8869;-80
2022/01/10 05:46:26;;;;;;;;;18.25;16.50;;;;;1.24;74.90;98617.84;5053090;28;8834;-79
2022/01/10 05:49:00;;;;;;;;;22.40;13.40;;;;;1.14;75.26;98621.94;5053715;28;9451;-78
2022/01/10 05:51:34;;;;;;;;;21.25;18.25;;;;;1.27;74.92;98617.06;5070365;28;8878;-79
2022/01/10 05:54:17;;;;;;;;;16.25;15.75;;;;;1.21;74.94;98625.50;5071431;28;8864;-80
2022/01/10 05:56:49;;;;;;;;;26.50;24.75;;;;;1.14;74.53;98626.22;5073784;28;8898;-81
2022/01/10 05:59:19;;;;;;;;;18.20;17.20;;;;;1.08;75.17;98620.94;5069607;28;8873;-81
2022/01/10 06:01:49;;;;;;;;;25.00;21.00;;;;;0.94;75.92;98620.63;5070082;28;8846;-83
2022/01/10 06:04:22;;;;;;;;;20.25;16.00;;;;;1.13;75.73;98633.00;5069973;28;8854;-81
2022/01/10 06:06:52;;;;;;;;;19.75;15.75;;;;;0.99;75.58;98628.44;5064873;28;9007;-81
2022/01/10 06:09:21;;;;;;;;;20.50;14.50;;;;;0.83;75.66;98632.31;5069360;28;8973;-80
2022/01/10 06:11:50;;;;;;;;;16.25;13.00;;;;;0.59;76.97;98643.75;5069163;28;8865;-80
2022/01/10 06:14:21;;;;;;;;;18.25;17.00;;;;;0.37;78.95;98648.34;5072542;28;8916;-80
2022/01/10 06:16:50;;;;;;;;;23.75;20.75;;;;;0.38;78.55;98655.22;5068953;28;8928;-79
2022/01/10 06:19:19;;;;;;;;;20.00;18.50;;;;;-0.14;80.82;98668.34;5061517;28;8846;-80
2022/01/10 06:21:48;;;;;;;;;26.75;18.50;;;;;-0.01;81.03;98665.28;5016152;28;8877;-83
2022/01/10 06:24:17;;;;;;;;;21.00;20.50;;;;;-0.25;81.42;98674.00;5066416;28;8932;-79
2022/01/10 06:26:50;;;;;;;;;18.00;13.50;;;;;0.15;80.01;98667.44;5051657;28;8850;-81
2022/01/10 06:29:21;;;;;;;;;19.50;17.75;;;;;0.36;79.32;98663.72;5046822;28;8923;-82
2022/01/10 06:31:51;;;;;;;;;19.25;18.75;;;;;0.25;78.36;98676.22;5037202;28;8935;-82
2022/01/10 06:34:20;;;;;;;;;24.00;18.25;;;;;0.12;79.77;98672.47;5069647;28;8966;-79
2022/01/10 06:36:49;;;;;;;;;20.00;18.25;;;;;0.06;80.40;98667.19;5049765;28;8843;-80
2022/01/10 06:39:21;;;;;;;;;21.50;17.25;;;;;0.25;80.02;98668.53;5051638;28;8859;-79
2022/01/10 06:41:51;;;;;;;;;21.50;19.75;;;;;0.39;78.36;98680.00;5068947;28;8996;-79
2022/01/10 06:44:23;;;;;;;;;20.25;19.50;;;;;0.34;78.01;98679.03;5069222;28;8931;-79
2022/01/10 06:46:53;;;;;;;;;21.00;16.75;;;;;0.35;77.32;98677.34;5047031;28;8834;-80
2022/01/10 06:49:23;;;;;;;;;19.67;19.67;;;;;0.34;78.44;98680.72;4998598;28;8837;-81
2022/01/10 06:51:51;;;;;;;;;24.75;22.50;;;;;-0.11;79.50;98679.53;5042688;28;8863;-80
2022/01/10 06:54:22;;;;;;;;;23.25;19.25;;;;;-0.43;81.34;98688.88;5048555;28;8860;-81
2022/01/10 06:56:53;;;;;;;;;24.00;22.00;;;;;-0.35;81.83;98689.09;5044902;28;8859;-81
2022/01/10 06:59:24;;;;;;;;;27.00;21.00;;;;;-0.27;82.23;98698.72;5049362;28;9045;-84
2022/01/10 07:01:55;;;;;;;;;26.50;24.50;;;;;-0.04;81.35;98695.94;5013465;28;8859;-81
2022/01/10 07:04:26;;;;;;;;;21.50;18.50;;;;;0.12;80.28;98698.09;5048909;28;8884;-82
2022/01/10 07:06:57;;;;;;;;;25.50;21.50;;;;;0.24;78.79;98691.56;5048947;28;8894;-80
2022/01/10 07:09:31;;;;;;;;;21.00;21.00;;;;;0.03;79.91;98695.28;5048563;28;8866;-78
2022/01/10 07:12:08;;;;;;;;;25.50;21.75;;;;;-0.35;81.36;98701.91;5052705;28;8886;-84
2022/01/10 07:14:48;;;;;;;;;30.25;21.50;;;;;-0.39;82.05;98698.38;5029815;28;8888;-81
2022/01/10 07:17:17;;;;;;;;;20.00;18.75;;;;;-0.28;81.72;98696.13;5033479;28;8939;-81
2022/01/10 07:19:47;;;;;;;;;16.50;13.25;;;;;-0.08;81.21;98699.25;5103376;28;8888;-80
2022/01/10 07:22:22;;;;;;;;;27.25;18.75;;;;;-0.36;80.62;98701.00;5084446;28;8858;-80
2022/01/10 07:24:51;;;;;;;;;25.00;21.50;;;;;-0.45;80.71;98700.78;5099913;28;8850;-81
2022/01/10 07:27:20;;;;;;;;;28.00;20.75;;;;;-0.38;81.25;98709.47;5063347;28;8846;-79
2022/01/10 07:29:50;;;;;;;;;18.00;15.25;;;;;-0.12;81.53;98703.41;5061539;28;8849;-81
2022/01/10 07:32:20;;;;;;;;;23.75;22.00;;;;;-0.04;79.16;98719.00;5048329;28;8838;-81
2022/01/10 07:34:49;;;;;;;;;21.50;18.50;;;;;0.10;79.67;98704.03;5065678;28;9629;-79
2022/01/10 07:37:18;;;;;;;;;24.75;20.25;;;;;0.33;78.33;98715.75;5045657;28;9762;-78
2022/01/10 07:39:47;;;;;;;;;22.50;17.75;;;;;0.55;78.55;98724.91;5029480;28;9046;-81
2022/01/10 07:42:16;;;;;;;;;21.00;19.25;;;;;0.62;76.83;98723.34;4999367;28;8852;-82
2022/01/10 07:44:52;;;;;;;;;22.50;18.50;;;;;0.48;77.24;98728.13;5032865;28;8891;-82
2022/01/10 07:47:21;;;;;;;;;20.00;19.00;;;;;0.66;77.08;98738.00;4999976;28;8982;-79
2022/01/10 07:49:51;;;;;;;;;12.00;11.00;;;;;0.73;76.54;98737.31;5048629;28;8980;-80
2022/01/10 07:52:21;;;;;;;;;12.75;12.00;;;;;0.79;76.04;98744.28;5048339;28;8848;-80
2022/01/10 07:54:50;;;;;;;;;19.25;19.25;;;;;1.05;76.01;98738.94;5048593;28;9035;-80
2022/01/10 07:57:19;;;;;;;;;28.00;24.75;;;;;0.93;75.55;98740.38;5064866;28;8933;-80
2022/01/10 07:59:48;;;;;;;;;22.25;21.25;;;;;1.18;75.71;98738.41;5048882;28;8876;-78
2022/01/10 08:02:21;;;;;;;;;24.50;23.00;;;;;1.26;75.50;98738.59;5047471;28;8852;-81
2022/01/10 08:04:50;;;;;;;;;28.50;27.00;;;;;1.41;74.35;98733.81;5014180;28;8864;-78
2022/01/10 08:07:19;;;;;;;;;31.50;24.25;;;;;1.34;73.91;98737.06;5031453;28;8906;-79
2022/01/10 08:09:48;;;;;;;;;25.50;21.25;;;;;0.99;74.79;98743.94;5027334;28;9073;-80
2022/01/10 08:12:17;;;;;;;;;22.00;21.00;;;;;1.15;74.42;98744.34;5047745;28;8956;-81
2022/01/10 08:14:48;;;;;;;;;20.40;20.40;;;;;1.26;74.21;98748.88;5047500;28;9762;-83
2022/01/10 08:17:18;;;;;;;;;19.25;17.75;;;;;1.21;72.39;98750.44;5063901;28;8894;-75
2022/01/10 08:19:46;;;;;;;;;22.75;20.75;;;;;0.86;73.79;98750.47;4984600;28;8832;-75
2022/01/10 08:22:15;;;;;;;;;30.20;26.00;;;;;0.71;74.74;98759.50;5029394;28;8977;-77
2022/01/10 08:24:43;;;;;;;;;26.00;22.25;;;;;0.79;74.37;98754.56;5036291;28;9756;-75
2022/01/10 08:27:12;;;;;;;;;18.60;18.20;;;;;0.86;74.92;98763.28;5047380;28;8868;-76
2022/01/10 08:29:41;;;;;;;;;19.00;17.00;;;;;1.02;73.92;98761.97;5031071;28;8864;-76
2022/01/10 08:32:11;;;;;;;;;25.50;21.75;;;;;0.86;74.04;98759.03;5047801;28;8952;-80
2022/01/10 08:34:41;;;;;;;;;24.00;22.00;;;;;0.82;74.21;98762.34;5064990;28;8836;-73
2022/01/10 08:37:11;;;;;;;;;18.50;16.50;;;;;0.72;73.84;98765.53;5047786;28;8868;-76
2022/01/10 08:39:40;;;;;;;;;23.50;19.50;;;;;0.61;74.66;98765.22;5032434;28;8906;-75
2022/01/10 08:42:09;;;;;;;;;20.00;20.00;;;;;0.77;74.89;98771.63;5035751;28;8899;-76
2022/01/10 08:44:38;;;;;;;;;22.00;20.40;;;;;0.92;73.95;98773.72;5027376;28;8906;-75
2022/01/10 08:47:07;;;;;;;;;22.50;18.75;;;;;0.67;74.00;98767.09;5043932;28;8850;-76
2022/01/10 08:49:35;;;;;;;;;23.75;20.75;;;;;0.55;75.50;98776.19;5027525;28;8862;-76
2022/01/10 08:52:06;;;;;;;;;31.00;24.00;;;;;0.72;74.73;98771.50;5026298;28;8873;-74
2022/01/10 08:54:36;;;;;;;;;17.75;14.50;;;;;0.63;74.68;98775.53;5023612;28;8877;-75
2022/01/10 08:57:06;;;;;;;;;19.75;19.75;;;;;0.84;74.68;98778.66;4975418;28;9045;-76
2022/01/10 08:59:34;;;;;;;;;21.00;19.80;;;;;0.66;74.38;98785.84;5010407;28;8850;-77
2022/01/10 09:02:03;;;;;;;;;23.75;19.50;;;;;0.55;74.49;98786.47;5013591;28;10136;-76
2022/01/10 09:04:32;;;;;;;;;26.40;18.20;;;;;0.50;75.67;98789.72;5061191;28;8955;-75
2022/01/10 09:07:02;;;;;;;;;17.00;16.00;;;;;0.53;75.79;98784.66;5043698;28;8851;-75
2022/01/10 09:09:32;;;;;;;;;18.75;15.25;;;;;-0.32;77.79;98789.06;5030359;28;8943;-75
2022/01/10 09:12:01;;;;;;;;;21.00;21.00;;;;;-0.64;80.58;98784.69;5027928;28;8858;-77
2022/01/10 09:14:30;;;;;;;;;26.50;20.75;;;;;-0.72;81.64;98798.91;5044182;28;8850;-75
2022/01/10 09:16:59;;;;;;;;;20.50;18.25;;;;;-0.78;81.68;98796.16;5043538;28;8893;-79
2022/01/10 09:19:28;;;;;;;;;19.00;18.25;;;;;-0.73;80.65;98794.63;5044054;28;8864;-76
2022/01/10 09:21:56;;;;;;;;;17.50;14.50;;;;;-0.57;80.40;98793.41;5027331;28;8890;-75
2022/01/10 09:24:25;;;;;;;;;25.50;20.75;;;;;-0.98;81.71;98800.66;5026915;28;8875;-75
2022/01/10 09:26:56;;;;;;;;;23.00;21.00;;;;;-0.43;80.80;98794.75;5044003;28;8848;-75
2022/01/10 09:29:25;;;;;;;;;18.25;15.00;;;;;-0.06;79.86;98792.41;5027451;28;9971;-75
2022/01/10 09:31:53;;;;;;;;;23.25;23.25;;;;;0.21;78.52;98794.03;5059015;28;8859;-76
2022/01/10 09:34:22;;;;;;;;;23.00;21.50;;;;;-0.30;78.56;98792.53;5070269;28;8858;-75
2022/01/10 09:36:50;;;;;;;;;18.50;17.00;;;;;-1.26;82.57;98797.16;5070339;28;8851;-75
2022/01/10 09:39:19;;;;;;;;;20.50;20.00;;;;;-1.48;84.16;98807.47;5070127;28;8839;-75
2022/01/10 09:41:48;;;;;;;;;15.25;13.75;;;;;-1.66;84.72;98794.91;5070966;28;8847;-75
2022/01/10 09:44:18;;;;;;;;;20.00;19.50;;;;;-1.70;86.43;98793.94;5069026;28;8846;-75
2022/01/10 09:46:48;;;;;;;;;21.25;21.25;;;;;-1.72;85.31;98799.78;5082759;28;8972;-75
2022/01/10 09:49:18;;;;;;;;;16.00;15.50;;;;;-1.52;86.03;98788.59;5088932;28;8883;-74
2022/01/10 09:51:47;;;;;;;;;22.75;19.25;;;;;-0.99;84.62;98791.22;5087848;28;8935;-75
2022/01/10 09:54:15;;;;;;;;;25.00;21.50;;;;;-0.87;82.66;98801.88;5088728;28;9568;-75
2022/01/10 09:56:47;;;;;;;;;23.75;23.00;;;;;-1.31;83.76;98796.13;5049587;28;8846;-77
2022/01/10 09:59:16;;;;;;;;;20.75;18.25;;;;;-0.85;83.18;98784.00;5033039;28;8837;-76
2022/01/10 10:01:50;;;;;;;;;20.00;17.75;;;;;-1.41;82.81;98792.38;5067164;28;9637;-76
2022/01/10 10:04:19;;;;;;;;;21.00;20.00;;;;;-1.52;84.51;98793.69;5033860;28;8892;-75
2022/01/10 10:06:49;;;;;;;;;32.75;27.50;;;;;-1.49;85.18;98791.25;5067024;28;8853;-76
2022/01/10 10:09:18;;;;;;;;;29.00;26.50;;;;;-1.61;86.18;98801.94;5050534;28;8853;-76
2022/01/10 10:11:50;;;;;;;;;27.25;27.00;;;;;-1.89;87.32;98802.63;4981094;28;8874;-76
2022/01/10 10:14:22;;;;;;;;;24.25;23.75;;;;;-1.72;87.94;98797.22;5041815;28;8991;-76
2022/01/10 10:16:54;;;;;;;;;34.00;29.00;;;;;-1.46;86.93;98795.59;5033460;28;8853;-75
2022/01/10 10:19:26;;;;;;;;;23.25;22.00;;;;;-1.49;86.59;98798.94;5050439;28;8876;-75
2022/01/10 10:21:57;;;;;;;;;27.00;23.00;;;;;-1.62;86.78;98796.75;5045877;28;9700;-75
2022/01/10 10:24:26;;;;;;;;;21.25;20.00;;;;;-1.85;87.30;98796.78;4997554;28;8852;-74
2022/01/10 10:26:56;;;;;;;;;24.75;20.25;;;;;-1.79;88.32;98793.59;5009935;28;8883;-74
2022/01/10 10:29:29;;;;;;;;;30.50;27.00;;;;;-1.40;87.18;98796.69;5012719;28;9680;-75
2022/01/10 10:32:02;;;;;;;;;25.25;23.50;;;;;-1.20;85.80;98804.19;5046368;28;9008;-77
2022/01/10 10:34:33;;;;;;;;;26.75;24.25;;;;;-1.05;85.15;98799.56;5029325;28;8889;-75
2022/01/10 10:37:05;;;;;;;;;28.50;24.00;;;;;-1.26;86.10;98811.66;5046574;28;8889;-76
2022/01/10 10:39:36;;;;;;;;;24.00;19.25;;;;;-1.50;86.67;98801.44;5012933;28;8867;-75
2022/01/10 10:42:09;;;;;;;;;36.75;31.25;;;;;-1.59;87.21;98805.41;5045740;28;9614;-77
2022/01/10 10:44:39;;;;;;;;;28.00;22.00;;;;;-1.75;87.23;98807.34;5044114;28;8968;-73
2022/01/10 10:47:09;;;;;;;;;32.00;30.75;;;;;-1.95;88.76;98802.38;5028764;28;8828;-75
2022/01/10 10:49:41;;;;;;;;;30.25;28.25;;;;;-1.93;88.95;98790.50;5005269;28;9708;-78
2022/01/10 10:52:11;;;;;;;;;30.25;30.00;;;;;-1.96;89.75;98795.53;4988709;28;8848;-75
2022/01/10 10:54:41;;;;;;;;;32.50;27.50;;;;;-2.13;90.51;98809.38;4973430;28;8832;-74
2022/01/10 10:57:11;;;;;;;;;25.50;24.50;;;;;-1.77;90.58;98810.72;4993466;28;9590;-74
2022/01/10 10:59:43;;;;;;;;;26.75;24.50;;;;;-1.74;89.24;98806.53;5028960;28;8945;-76
2022/01/10 11:02:15;;;;;;;;;26.00;26.00;;;;;-2.07;89.60;98818.13;5011606;28;8835;-76
2022/01/10 11:04:44;;;;;;;;;33.00;30.75;;;;;-2.09;90.62;98824.84;5045114;28;8938;-75
2022/01/10 11:07:13;;;;;;;;;29.50;25.50;;;;;-2.21;91.01;98819.25;5046146;28;8948;-74
2022/01/10 11:10:04;;;;;;;;;30.00;24.50;;;;;-1.99;92.15;98819.25;5012739;28;8847;-75
2022/01/10 11:12:40;;;;;;;;;34.50;32.75;;;;;-1.83;90.78;98819.84;5029509;28;8978;-75
2022/01/10 11:15:13;;;;;;;;;30.75;22.75;;;;;-1.85;90.53;98827.47;5012764;28;8977;-75
2022/01/10 11:17:43;;;;;;;;;38.75;35.50;;;;;-2.00;91.32;98832.00;5043252;28;9607;-75
2022/01/10 11:20:16;;;;;;;;;38.50;33.75;;;;;-2.02;90.84;98834.50;5028427;28;8835;-75
2022/01/10 11:22:47;;;;;;;;;33.25;29.50;;;;;-2.08;91.91;98838.47;5012891;28;8908;-75
2022/01/10 11:25:21;;;;;;;;;35.25;30.75;;;;;-2.00;91.46;98840.53;5025830;28;9017;-76
2022/01/10 11:27:52;;;;;;;;;34.25;32.00;;;;;-1.92;91.86;98834.84;5079019;28;8859;-76
2022/01/10 11:30:28;;;;;;;;;39.50;32.50;;;;;-1.99;91.88;98828.63;5062832;28;8942;-75
2022/01/10 11:33:03;;;;;;;;;32.00;27.00;;;;;-1.94;92.31;98829.66;5065387;28;8894;-76
2022/01/10 11:35:52;;;;;;;;;38.75;34.50;;;;;-1.94;92.68;98829.66;5085825;28;8860;-76
2022/01/10 11:38:30;;;;;;;;;31.25;29.00;;;;;-1.80;92.32;98833.59;5052033;28;8913;-75
2022/01/10 11:41:02;;;;;;;;;31.50;28.50;;;;;-1.79;92.13;98837.03;5073165;28;8959;-75
2022/01/10 11:43:42;;;;;;;;;36.25;34.50;;;;;-1.81;92.13;98836.13;5068238;28;8833;-76
2022/01/10 11:46:22;;;;;;;;;42.50;36.00;;;;;-1.86;92.27;98835.06;5087485;28;8858;-77
2022/01/10 11:48:57;;;;;;;;;39.50;33.50;;;;;-1.77;92.45;98837.97;5078060;28;8865;-75
2022/01/10 11:51:29;;;;;;;;;35.75;31.00;;;;;-1.64;91.67;98834.19;5071030;28;8968;-76
2022/01/10 11:54:11;;;;;;;;;37.25;34.25;;;;;-1.70;90.78;98852.72;5051896;28;8874;-75
2022/01/10 11:56:41;;;;;;;;;50.75;42.50;;;;;-1.69;91.33;98843.34;5030515;28;8832;-75
2022/01/10 11:59:23;;;;;;;;;41.50;38.00;;;;;-1.70;91.95;98842.50;5030234;28;8859;-75